This is the latest recevied weather packets stored in our database for station/object W4DEX-2. If no packets are shown the sender has not sent any weather packets the latest 10 day(s).
| Time | Temp. | Humidity | Pressure | Rain* | Wind** | Luminosity | Snow |
|---|---|---|---|---|---|---|---|
| 1778090103 | 18.89° C | 79% | 1014.4 hPa | 0 mm | 4.47 m/s, 172° | - | - |
| 1778089803 | 18.89° C | 78% | 1014.4 hPa | 0 mm | 4.47 m/s, 176° | - | - |
| 1778089503 | 18.89° C | 79% | 1014.9 hPa | 0 mm | 3.58 m/s, 185° | - | - |
| 1778089207 | 19.44° C | 79% | 1014.9 hPa | 0 mm | 4.47 m/s, 182° | - | - |
| 1778088902 | 19.44° C | 77% | 1014.4 hPa | 0 mm | 4.47 m/s, 180° | - | - |
| 1778088603 | 19.44° C | 76% | 1014.2 hPa | 7.11 mm | 4.92 m/s, 183° | - | - |
| 1778088303 | 20° C | 72% | 1014.3 hPa | 8.38 mm | 5.36 m/s, 181° | - | - |
| 1778088002 | 21.67° C | 65% | 1014.4 hPa | 0 mm | 4.92 m/s, 180° | - | - |
| 1778087402 | 22.22° C | 61% | 1013.9 hPa | 0 mm | 4.92 m/s, 180° | - | - |
| 1778087102 | 22.22° C | 60% | 1013.9 hPa | 0 mm | 4.47 m/s, 190° | - | - |
| 1778086503 | 22.78° C | 60% | 1014.2 hPa | 0 mm | 4.92 m/s, 180° | - | - |
| 1778086203 | 22.22° C | 61% | 1014 hPa | 0 mm | 5.36 m/s, 179° | - | - |
| 1778085904 | 22.22° C | 61% | 1014 hPa | 0 mm | 4.92 m/s, 188° | - | - |
| 1778085602 | 21.67° C | 62% | 1014 hPa | 0 mm | 4.92 m/s, 182° | - | - |
| 1778085302 | 21.67° C | 62% | 1014 hPa | 0 mm | 6.71 m/s, 177° | - | - |
| 1778084703 | 22.22° C | 62% | 1014.1 hPa | 0 mm | 4.47 m/s, 180° | - | - |
| 1778083802 | 22.22° C | 61% | 1014 hPa | 0 mm | 5.36 m/s, 189° | - | - |
| 1778083502 | 22.22° C | 60% | 1013.9 hPa | 0 mm | 4.47 m/s, 184° | - | - |
| 1778083202 | 22.22° C | 61% | 1014 hPa | 0 mm | 4.92 m/s, 184° | - | - |
| 1778082903 | 22.22° C | 61% | 1013.9 hPa | 0 mm | 4.47 m/s, 185° | - | - |
| 1778082604 | 22.22° C | 60% | 1013.9 hPa | 0 mm | 6.26 m/s, 183° | - | - |
| 1778082302 | 22.22° C | 61% | 1013.8 hPa | 0 mm | 5.36 m/s, 171° | - | - |
| 1778082002 | 21.67° C | 63% | 1013.8 hPa | 0 mm | 4.92 m/s, 179° | - | - |
| 1778081703 | 21.11° C | 64% | 1013.8 hPa | 0 mm | 4.92 m/s, 164° | - | - |
| 1778081403 | 21.11° C | 64% | 1013.7 hPa | 0 mm | 3.58 m/s, 190° | - | - |
* Rain latest hour (hover to see other rain measurements)
** Current wind speed in m/s (hover to see current wind gust speed)